createdAt,value
2023-03-21T00:28:37.892Z,0
2023-03-21T00:29:18.366Z,0
2023-03-21T00:29:58.823Z,0
2023-03-21T00:34:02.623Z,0
2023-03-21T00:34:54.708Z,0
2023-03-21T00:35:53.919Z,0
2023-03-21T00:36:05.670Z,0
2023-03-21T00:36:44.743Z,0
2023-03-21T00:37:25.170Z,0
2023-03-21T00:38:05.653Z,0
2023-03-21T00:38:46.167Z,0
2023-03-21T00:39:26.686Z,0
2023-03-21T00:40:08.821Z,0
2023-03-21T00:47:32.728Z,0
2023-03-21T00:48:13.285Z,0
2023-03-21T00:48:53.695Z,0
2023-03-21T00:49:34.264Z,0
2023-03-21T00:50:14.719Z,0
2023-03-21T00:50:55.226Z,0
2023-03-21T00:51:36.630Z,0
2023-03-21T00:52:22.309Z,0
2023-03-21T00:52:56.831Z,0
2023-03-21T00:53:37.316Z,0
2023-03-21T01:01:02.847Z,0
2023-03-21T01:01:43.396Z,0
2023-03-21T01:02:23.882Z,0
2023-03-21T01:03:14.461Z,0
2023-03-21T01:03:44.792Z,0
2023-03-21T01:04:25.287Z,0
2023-03-21T01:05:05.812Z,0
2023-03-21T01:05:46.318Z,0
2023-03-21T01:06:26.857Z,0
2023-03-21T01:07:07.307Z,0
2023-03-21T01:13:23.415Z,0
2023-03-21T01:15:36.389Z,0
2023-03-21T01:16:16.527Z,0
2023-03-21T01:16:56.986Z,0
2023-03-21T01:28:04.136Z,0
2023-03-21T01:30:21.636Z,0
2023-03-21T01:30:58.782Z,0
2023-03-21T01:31:39.753Z,0
2023-03-21T01:33:42.785Z,0
2023-03-21T01:34:23.835Z,0
2023-03-21T01:36:52.195Z,0
2023-03-21T01:39:19.958Z,0
2023-03-21T01:46:10.084Z,0
2023-03-21T01:47:09.574Z,0
2023-03-21T01:47:30.994Z,0
2023-03-21T01:52:46.302Z,0
2023-03-21T01:53:26.731Z,0
2023-03-21T01:54:07.285Z,0
2023-03-21T01:58:50.772Z,0
2023-03-21T01:59:31.266Z,0
2023-03-21T02:00:11.769Z,0
2023-03-21T02:00:52.392Z,0
2023-03-21T02:02:13.277Z,0
2023-03-21T02:02:54.568Z,0
2023-03-21T02:03:36.216Z,0
2023-03-21T02:04:14.736Z,0
2023-03-21T02:04:55.237Z,0
2023-03-21T02:12:20.810Z,0
2023-03-21T02:13:01.313Z,0
2023-03-21T02:13:41.843Z,0
2023-03-21T02:14:28.842Z,0
2023-03-21T02:15:02.838Z,0
2023-03-21T02:15:43.415Z,0
2023-03-21T02:16:23.900Z,0
2023-03-21T02:17:04.383Z,0
2023-03-21T02:17:44.858Z,0
2023-03-21T02:18:25.380Z,0
2023-03-21T02:25:50.857Z,0
2023-03-21T02:26:41.064Z,0
2023-03-21T02:27:11.931Z,0
2023-03-21T02:27:52.404Z,0
2023-03-21T02:28:32.885Z,0
2023-03-21T02:29:13.382Z,0
2023-03-21T02:29:53.890Z,0
2023-03-21T02:30:42.614Z,0
2023-03-21T02:31:14.898Z,0
2023-03-21T02:31:58.771Z,0
2023-03-21T02:39:20.804Z,0
2023-03-21T02:40:01.306Z,0
2023-03-21T02:40:41.826Z,0
2023-03-21T02:41:22.369Z,0
2023-03-21T02:42:02.811Z,0
2023-03-21T02:42:44.923Z,0
2023-03-21T02:43:24.115Z,0
2023-03-21T02:44:04.215Z,0
2023-03-21T02:44:44.722Z,0
2023-03-21T02:45:25.281Z,0
2023-03-21T02:52:50.788Z,0
2023-03-21T02:53:31.287Z,0
2023-03-21T02:54:38.619Z,0
2023-03-21T02:54:52.268Z,0
2023-03-21T02:55:32.747Z,0
2023-03-21T02:56:13.266Z,0
2023-03-21T02:56:53.742Z,0
2023-03-21T02:57:42.418Z,0
2023-03-21T02:58:14.755Z,0
2023-03-21T02:58:55.183Z,0
2023-03-21T02:59:37.595Z,0
2023-03-21T03:06:20.858Z,0
2023-03-21T03:07:01.331Z,0
2023-03-21T03:07:41.825Z,0
2023-03-21T03:08:32.395Z,0
2023-03-21T03:09:03.259Z,0
2023-03-21T03:09:43.364Z,0
2023-03-21T03:10:23.818Z,0
2023-03-21T03:11:04.303Z,0
2023-03-21T03:11:44.795Z,0
2023-03-21T03:12:25.324Z,0
2023-03-21T03:19:51.409Z,0
2023-03-21T03:20:31.240Z,0
2023-03-21T03:21:11.808Z,0
2023-03-21T03:21:52.210Z,0
2023-03-21T03:22:32.699Z,0
2023-03-21T03:23:13.215Z,0
2023-03-21T03:23:53.695Z,0
2023-03-21T03:24:34.250Z,0
2023-03-21T03:25:22.935Z,0
2023-03-21T03:25:55.221Z,0
2023-03-21T03:33:20.790Z,0
2023-03-21T03:34:01.314Z,0
2023-03-21T03:34:41.812Z,0
2023-03-21T03:35:22.307Z,0
2023-03-21T03:36:06.338Z,0
2023-03-21T03:36:43.323Z,0
2023-03-21T03:37:23.782Z,0
2023-03-21T03:38:04.256Z,0
2023-03-21T03:38:44.781Z,0
2023-03-21T03:39:25.270Z,0
2023-03-21T03:46:50.859Z,0
2023-03-21T03:47:34.845Z,0
2023-03-21T03:48:11.925Z,0
2023-03-21T03:48:52.293Z,0
2023-03-21T03:49:32.795Z,0
2023-03-21T03:50:13.356Z,0
2023-03-21T03:50:53.864Z,0
2023-03-21T03:51:34.305Z,0
2023-03-21T03:52:14.822Z,0
2023-03-21T03:52:57.715Z,0
2023-03-21T03:59:40.815Z,0
2023-03-21T04:00:21.352Z,0
2023-03-21T04:01:01.857Z,0
2023-03-21T04:01:42.338Z,0
2023-03-21T04:02:22.854Z,0
2023-03-21T04:03:03.427Z,0
2023-03-21T04:03:49.692Z,0
2023-03-21T04:04:24.311Z,0
2023-03-21T04:05:04.768Z,0
2023-03-21T04:05:45.217Z,0
2023-03-21T04:06:25.703Z,0
2023-03-21T04:13:10.693Z,0
2023-03-21T04:13:51.145Z,0
2023-03-21T04:14:43.773Z,0
2023-03-21T04:15:12.087Z,0
2023-03-21T04:15:52.689Z,0
2023-03-21T04:16:35.600Z,0
2023-03-21T04:17:13.597Z,0
2023-03-21T04:17:54.082Z,0
2023-03-21T04:18:34.650Z,0
2023-03-21T04:19:15.067Z,0
2023-03-21T04:20:02.593Z,0
2023-03-21T04:27:21.152Z,0
2023-03-21T04:28:01.604Z,0
2023-03-21T04:28:42.100Z,0
2023-03-21T04:29:22.608Z,0
2023-03-21T04:30:03.066Z,0
2023-03-21T04:30:55.111Z,0
2023-03-21T04:31:26.101Z,0
2023-03-21T04:32:04.632Z,0
2023-03-21T04:32:45.113Z,0
2023-03-21T04:33:25.614Z,0
2023-03-21T04:40:51.064Z,0
2023-03-21T04:41:31.540Z,0
2023-03-21T04:42:12.045Z,0
2023-03-21T04:42:52.563Z,0
2023-03-21T04:43:33.091Z,0
2023-03-21T04:44:13.610Z,0
2023-03-21T04:44:54.139Z,0
2023-03-21T04:45:34.571Z,0
2023-03-21T04:46:15.109Z,0
2023-03-21T04:46:55.571Z,0
2023-03-21T04:54:21.075Z,0
2023-03-21T04:55:01.569Z,0
2023-03-21T04:55:42.044Z,0
2023-03-21T04:56:22.513Z,0
2023-03-21T05:01:06.037Z,0
2023-03-21T05:02:26.945Z,0
2023-03-21T05:03:07.483Z,0
2023-03-21T05:03:47.978Z,0
2023-03-21T05:04:28.535Z,0
2023-03-21T05:05:08.920Z,0
2023-03-21T05:05:49.463Z,0
2023-03-21T05:06:29.928Z,0
2023-03-21T05:07:10.459Z,0
2023-03-21T05:13:56.286Z,0
2023-03-21T05:14:36.778Z,0
2023-03-21T05:15:17.284Z,0
2023-03-21T05:15:57.748Z,0
2023-03-21T05:16:38.256Z,0
2023-03-21T05:17:18.782Z,0
2023-03-21T05:17:59.309Z,0
2023-03-21T05:18:40.473Z,0
2023-03-21T05:19:20.954Z,0
2023-03-21T05:26:06.176Z,0
2023-03-21T05:26:46.629Z,0
2023-03-21T05:27:27.119Z,0
2023-03-21T05:28:07.640Z,0
2023-03-21T05:28:48.142Z,0
2023-03-21T05:29:28.648Z,0
2023-03-21T05:30:09.181Z,0
2023-03-21T05:30:49.684Z,0
2023-03-21T05:31:30.178Z,0
2023-03-21T05:32:10.680Z,0
2023-03-21T05:39:36.162Z,0
2023-03-21T05:40:16.657Z,0
2023-03-21T05:40:57.169Z,0
2023-03-21T05:41:37.634Z,0
2023-03-21T05:42:18.103Z,0
2023-03-21T05:42:58.576Z,0
2023-03-21T05:43:39.092Z,0
2023-03-21T05:44:19.700Z,0
2023-03-21T05:45:00.176Z,0
2023-03-21T05:45:40.723Z,0
2023-03-21T05:52:27.665Z,0
2023-03-21T05:53:08.154Z,0
2023-03-21T05:53:48.697Z,0
2023-03-21T06:31:32.571Z,0
2023-03-21T06:32:13.005Z,0
2023-03-21T06:32:53.526Z,0
2023-03-21T06:38:17.642Z,0
2023-03-21T06:38:58.116Z,0
2023-03-21T06:39:38.642Z,0
2023-03-21T06:40:19.223Z,0
2023-03-21T06:40:59.785Z,0
2023-03-21T06:41:40.347Z,0
2023-03-21T06:42:20.896Z,0
2023-03-21T06:43:01.411Z,0
2023-03-21T06:43:41.900Z,0
2023-03-21T06:50:27.373Z,5
2023-03-21T06:51:07.878Z,5
2023-03-21T06:51:48.448Z,5
2023-03-21T06:52:28.950Z,5
2023-03-21T06:53:09.511Z,0
2023-03-21T06:53:50.005Z,0
2023-03-21T06:54:30.896Z,0
2023-03-21T06:55:11.841Z,0
2023-03-21T07:02:37.657Z,0
2023-03-21T07:03:18.114Z,0
2023-03-21T07:03:58.615Z,0
2023-03-21T07:04:39.128Z,0
2023-03-21T07:05:19.668Z,0
2023-03-21T07:06:00.145Z,0
2023-03-21T07:06:40.628Z,0
2023-03-21T07:07:21.154Z,5
2023-03-21T07:08:01.649Z,5
2023-03-21T07:08:42.181Z,5
2023-03-21T07:14:47.336Z,5
2023-03-21T07:15:27.857Z,5
2023-03-21T07:16:08.369Z,5
2023-03-21T07:16:49.088Z,5
2023-03-21T07:17:29.591Z,5
2023-03-21T07:18:10.119Z,5
2023-03-21T07:18:50.599Z,5
2023-03-21T07:19:31.110Z,5
2023-03-21T07:20:11.641Z,5
2023-03-21T07:26:17.933Z,5
2023-03-21T07:26:58.550Z,5
2023-03-21T07:27:40.858Z,5
2023-03-21T07:28:19.562Z,5
2023-03-21T07:29:00.137Z,5
2023-03-21T07:29:40.636Z,5
2023-03-21T07:30:21.100Z,5
2023-03-21T07:31:02.016Z,5
2023-03-21T07:38:27.747Z,5
2023-03-21T07:39:08.172Z,5
2023-03-21T07:39:48.697Z,5
2023-03-21T07:40:29.250Z,5
2023-03-21T07:41:09.749Z,5
2023-03-21T07:41:50.283Z,5
2023-03-21T07:43:11.356Z,5
2023-03-21T07:43:51.881Z,5
2023-03-21T07:50:37.457Z,5
2023-03-21T07:51:17.875Z,5
2023-03-21T07:51:58.456Z,5
2023-03-21T07:52:38.930Z,5
2023-03-21T07:53:19.520Z,5
2023-03-21T07:54:00.118Z,5
2023-03-21T07:54:40.675Z,5
2023-03-21T07:55:21.150Z,5
2023-03-21T07:56:01.664Z,5
2023-03-21T07:56:42.271Z,5
2023-03-21T07:58:48.335Z,5
2023-03-21T08:02:21.747Z,5
2023-03-21T08:03:01.517Z,5
2023-03-21T08:03:42.042Z,5
2023-03-21T08:04:24.003Z,5
2023-03-21T08:05:04.741Z,5
2023-03-21T08:05:45.224Z,5
2023-03-21T08:06:26.357Z,5
2023-03-21T08:11:11.989Z,10
2023-03-21T08:11:52.496Z,10
2023-03-21T08:12:33.881Z,10
2023-03-21T08:13:14.701Z,10
2023-03-21T08:13:55.340Z,10
2023-03-21T08:14:36.235Z,10
2023-03-21T08:20:02.137Z,10
2023-03-21T08:20:42.995Z,10
2023-03-21T08:21:24.999Z,10
2023-03-21T08:22:05.889Z,10
2023-03-21T08:22:46.342Z,10
2023-03-21T08:23:26.793Z,10
2023-03-21T08:24:53.948Z,10
2023-03-21T08:28:15.082Z,10
2023-03-21T08:28:56.425Z,10
2023-03-21T08:29:37.772Z,10
2023-03-21T08:31:39.541Z,10
2023-03-21T08:32:20.116Z,10
2023-03-21T08:33:01.741Z,10
2023-03-21T08:33:41.569Z,10
2023-03-21T08:34:22.270Z,10
2023-03-21T08:36:31.027Z,10
2023-03-21T08:37:10.847Z,10
2023-03-21T08:37:51.488Z,10
2023-03-21T08:38:32.240Z,10
2023-03-21T08:39:13.924Z,10
2023-03-21T08:45:19.690Z,10
2023-03-21T08:46:00.286Z,10
2023-03-21T08:46:41.066Z,10
2023-03-21T08:48:03.796Z,10
2023-03-21T08:48:44.314Z,10
2023-03-21T08:53:15.138Z,10
2023-03-21T08:53:56.633Z,10
2023-03-21T08:54:37.406Z,10
2023-03-21T08:56:39.843Z,10
2023-03-21T08:57:20.436Z,10
2023-03-21T08:58:00.945Z,10
2023-03-21T08:58:41.521Z,10
2023-03-21T08:59:22.150Z,15
2023-03-21T09:00:02.703Z,15
2023-03-21T09:00:43.457Z,15
2023-03-21T09:01:23.979Z,15
2023-03-21T09:08:21.597Z,15
2023-03-21T09:09:02.777Z,15
2023-03-21T09:09:42.876Z,15
2023-03-21T09:13:06.145Z,20
2023-03-21T09:13:46.892Z,20
2023-03-21T09:14:29.366Z,15
2023-03-21T09:15:08.354Z,15
2023-03-21T09:15:48.894Z,15
2023-03-21T09:16:29.615Z,15
2023-03-21T09:17:11.500Z,15
2023-03-21T09:21:15.844Z,15
2023-03-21T09:21:56.603Z,15
2023-03-21T09:22:37.238Z,15
2023-03-21T09:23:17.902Z,15
2023-03-21T09:23:59.900Z,15
2023-03-21T09:24:40.901Z,15
2023-03-21T09:28:06.450Z,15
2023-03-21T09:28:47.059Z,15
2023-03-21T09:29:28.070Z,15
2023-03-21T09:30:08.312Z,15
2023-03-21T09:32:54.200Z,15
2023-03-21T09:33:35.059Z,15
2023-03-21T09:34:16.780Z,15
2023-03-21T09:34:58.408Z,15
2023-03-21T09:35:39.997Z,15
2023-03-21T09:36:21.302Z,15
2023-03-21T09:37:02.689Z,15
2023-03-21T09:40:28.849Z,10
2023-03-21T09:41:09.946Z,10
2023-03-21T09:41:51.179Z,15
2023-03-21T09:42:32.471Z,15
2023-03-21T09:47:28.328Z,15
2023-03-21T09:48:11.032Z,15
2023-03-21T09:48:56.951Z,15
2023-03-21T09:49:34.974Z,15
2023-03-21T09:51:37.159Z,15
2023-03-21T09:52:17.540Z,15
2023-03-21T09:52:58.175Z,15
2023-03-21T09:53:38.664Z,15
2023-03-21T09:57:01.642Z,15
2023-03-21T09:57:42.190Z,15
2023-03-21T09:58:22.720Z,15
2023-03-21T09:59:03.801Z,15
2023-03-21T09:59:44.456Z,15
2023-03-21T10:00:25.157Z,15
2023-03-21T10:01:05.754Z,10
2023-03-21T10:09:45.735Z,15
2023-03-21T10:10:26.325Z,15
2023-03-21T10:11:07.102Z,15
2023-03-21T10:11:47.682Z,15
2023-03-21T10:13:11.340Z,15
2023-03-21T10:13:51.995Z,15
2023-03-21T10:14:34.053Z,15
2023-03-21T10:15:29.588Z,15
2023-03-21T10:16:51.227Z,20
2023-03-21T10:17:32.541Z,20
2023-03-21T10:18:13.107Z,20
2023-03-21T10:18:53.686Z,20
2023-03-21T10:19:34.609Z,20
2023-03-21T10:24:21.190Z,20
2023-03-21T10:25:02.889Z,20
2023-03-21T10:25:45.814Z,20
2023-03-21T10:26:28.142Z,20
2023-03-21T10:27:09.699Z,20
2023-03-21T10:27:52.315Z,20
2023-03-21T10:28:46.275Z,25
2023-03-21T10:31:23.719Z,30
2023-03-21T10:32:05.085Z,30
2023-03-21T10:32:50.182Z,35
2023-03-21T10:34:13.110Z,35
2023-03-21T10:37:23.668Z,40
2023-03-21T10:38:05.051Z,40
2023-03-21T10:38:46.025Z,40
2023-03-21T10:39:27.462Z,40
2023-03-21T10:40:08.733Z,35
2023-03-21T10:40:49.834Z,35
2023-03-21T10:41:31.425Z,35
2023-03-21T10:42:12.420Z,35
2023-03-21T10:47:10.988Z,30
2023-03-21T10:47:52.301Z,30
2023-03-21T10:48:35.099Z,30
2023-03-21T10:49:18.353Z,30
2023-03-21T10:50:08.375Z,25
2023-03-21T10:52:03.886Z,25
2023-03-21T10:58:03.809Z,20
2023-03-21T10:58:45.997Z,20
2023-03-21T10:59:28.683Z,20
2023-03-21T11:00:09.668Z,20
2023-03-21T11:00:50.651Z,25
2023-03-21T11:02:23.242Z,25
2023-03-21T11:08:30.894Z,30
2023-03-21T11:09:11.762Z,30
2023-03-21T11:09:53.757Z,30
2023-03-21T11:10:33.966Z,30
2023-03-21T11:11:15.752Z,25
2023-03-21T11:11:56.264Z,25
2023-03-21T11:12:38.012Z,25
2023-03-21T11:14:03.628Z,25
2023-03-21T11:14:47.012Z,25
2023-03-21T11:15:28.358Z,25
2023-03-21T11:27:01.503Z,20
2023-03-21T11:27:44.066Z,20
2023-03-21T11:28:27.250Z,20
2023-03-21T11:29:09.454Z,20
2023-03-21T11:31:30.545Z,15
2023-03-21T11:32:11.077Z,15
2023-03-21T11:32:51.650Z,15
2023-03-21T11:33:32.234Z,15
2023-03-21T11:34:13.487Z,15
2023-03-21T11:34:53.877Z,15
2023-03-21T11:35:35.459Z,15
2023-03-21T11:36:16.312Z,15
2023-03-21T11:36:57.997Z,15
2023-03-21T11:39:16.686Z,15
2023-03-21T11:39:57.445Z,15
2023-03-21T11:40:38.092Z,15
2023-03-21T11:41:19.481Z,15
2023-03-21T11:44:01.721Z,15
2023-03-21T11:44:42.375Z,15
2023-03-21T11:45:23.254Z,15
2023-03-21T11:46:03.829Z,15
2023-03-21T11:46:44.639Z,15
2023-03-21T11:48:51.644Z,15
2023-03-21T11:52:33.616Z,15
2023-03-21T12:32:25.223Z,25
2023-03-21T12:33:06.256Z,25
2023-03-21T12:33:49.176Z,25
2023-03-21T12:34:30.420Z,25
2023-03-21T12:35:10.817Z,25
2023-03-21T12:35:51.332Z,25
2023-03-21T12:36:31.848Z,25
2023-03-21T12:37:12.477Z,25
2023-03-21T12:43:17.805Z,30
2023-03-21T12:43:58.500Z,30
2023-03-21T12:46:35.935Z,30
2023-03-21T12:47:16.640Z,30
2023-03-21T12:47:58.066Z,30
2023-03-21T12:48:38.812Z,30
2023-03-21T12:50:01.451Z,30
2023-03-21T12:50:42.465Z,30
2023-03-21T12:51:23.319Z,30
2023-03-21T12:52:04.103Z,30
2023-03-21T12:52:44.717Z,30
2023-03-21T12:56:50.080Z,30
2023-03-21T12:57:30.762Z,30
2023-03-21T12:58:11.466Z,30
2023-03-21T12:58:53.016Z,30
2023-03-21T12:59:33.129Z,30
2023-03-21T13:05:03.970Z,30
2023-03-21T13:05:44.880Z,30
2023-03-21T13:09:28.469Z,30
2023-03-21T13:10:01.267Z,30
2023-03-21T13:10:43.662Z,30
2023-03-21T13:12:05.110Z,30
2023-03-21T13:16:00.657Z,30
2023-03-21T13:16:41.030Z,30
2023-03-21T13:17:22.100Z,30
2023-03-21T13:18:02.632Z,25
2023-03-21T13:19:23.987Z,25
2023-03-21T13:22:06.149Z,25
2023-03-21T13:22:47.433Z,30
2023-03-21T13:23:28.187Z,30
2023-03-21T13:24:10.808Z,30
2023-03-21T13:24:52.000Z,30
2023-03-21T13:26:21.171Z,30
2023-03-21T13:27:02.571Z,30
2023-03-21T13:34:05.741Z,30
2023-03-21T13:34:47.839Z,30
2023-03-21T13:35:28.906Z,30
2023-03-21T13:36:09.487Z,30
2023-03-21T13:36:54.214Z,30
2023-03-21T13:41:59.695Z,30
2023-03-21T13:42:40.428Z,30
2023-03-21T13:43:26.967Z,30
2023-03-21T13:44:01.701Z,30
2023-03-21T13:46:03.353Z,30
2023-03-21T13:46:53.292Z,30
2023-03-21T13:47:24.876Z,35
2023-03-21T13:48:05.564Z,30
2023-03-21T13:48:56.210Z,35
2023-03-21T13:49:26.759Z,35
2023-03-21T13:50:07.266Z,35
2023-03-21T13:50:47.921Z,30
2023-03-21T13:55:33.130Z,35
2023-03-21T13:56:13.619Z,35
2023-03-21T13:56:54.261Z,35
2023-03-21T13:57:35.138Z,35
2023-03-21T13:58:15.783Z,35
2023-03-21T13:58:56.507Z,35
2023-03-21T13:59:37.086Z,35
2023-03-21T14:00:17.595Z,30
2023-03-21T14:04:24.764Z,30
2023-03-21T14:05:06.238Z,30
2023-03-21T14:05:44.771Z,30
2023-03-21T14:06:25.339Z,30
2023-03-21T14:07:06.050Z,30
2023-03-21T14:07:46.468Z,30
2023-03-21T14:08:36.688Z,30
2023-03-21T14:09:07.639Z,30
2023-03-21T14:13:13.579Z,30
2023-03-21T14:13:54.116Z,30
2023-03-21T14:14:34.675Z,30
2023-03-21T14:15:16.893Z,30
2023-03-21T14:15:56.895Z,30
2023-03-21T14:16:36.825Z,30
2023-03-21T14:17:17.534Z,30
2023-03-21T14:21:24.421Z,30
2023-03-21T14:22:05.163Z,30
2023-03-21T14:22:45.020Z,30
2023-03-21T14:23:25.877Z,30
2023-03-21T14:24:06.593Z,25
2023-03-21T14:24:47.296Z,25
2023-03-21T14:25:31.394Z,25
2023-03-21T14:30:53.476Z,30
2023-03-21T14:31:34.177Z,30
2023-03-21T14:32:14.563Z,25
2023-03-21T14:32:55.366Z,25
2023-03-21T14:33:35.876Z,25
2023-03-21T14:34:16.641Z,25
2023-03-21T14:34:57.466Z,25
2023-03-21T14:40:23.215Z,25
2023-03-21T14:41:03.949Z,25
2023-03-21T14:41:44.626Z,30
2023-03-21T14:42:25.310Z,30
2023-03-21T14:48:34.009Z,30
2023-03-21T14:49:14.492Z,30
2023-03-21T14:49:55.135Z,30
2023-03-21T14:50:35.642Z,30
2023-03-21T14:51:16.226Z,35
2023-03-21T14:51:56.993Z,35
2023-03-21T14:52:37.369Z,35
2023-03-21T14:59:01.840Z,35
2023-03-21T14:59:43.261Z,35
2023-03-21T15:00:24.198Z,35
2023-03-21T15:01:06.583Z,35
2023-03-21T15:05:11.877Z,35
2023-03-21T15:05:52.176Z,35
2023-03-21T15:06:32.686Z,35
2023-03-21T15:07:13.341Z,35
2023-03-21T15:09:56.674Z,40
2023-03-21T15:10:37.193Z,40
2023-03-21T15:11:17.865Z,35
2023-03-21T15:11:58.487Z,40
2023-03-21T15:12:39.000Z,35
2023-03-21T15:13:19.846Z,35
2023-03-21T15:14:00.465Z,30
2023-03-21T15:14:41.000Z,25
2023-03-21T15:20:46.317Z,30
2023-03-21T15:21:26.789Z,30
2023-03-21T15:22:07.354Z,30
2023-03-21T15:22:48.068Z,25
2023-03-21T15:23:29.290Z,25
2023-03-21T15:24:09.061Z,25
2023-03-21T15:24:49.779Z,25
2023-03-21T15:25:30.321Z,25
2023-03-21T15:26:10.936Z,25
2023-03-21T15:31:36.896Z,30
2023-03-21T15:32:17.417Z,30
2023-03-21T15:32:57.974Z,30
2023-03-21T15:33:38.528Z,25
2023-03-21T15:34:19.063Z,25
2023-03-21T15:34:59.556Z,30
2023-03-21T15:35:40.400Z,35
2023-03-21T15:36:20.615Z,35
2023-03-21T15:37:01.088Z,35
2023-03-21T15:42:26.795Z,35
2023-03-21T15:43:07.296Z,35
2023-03-21T15:43:48.602Z,35
2023-03-21T15:44:29.134Z,35
2023-03-21T15:45:10.291Z,35
2023-03-21T15:45:50.876Z,35
2023-03-21T15:51:56.245Z,30
2023-03-21T15:52:36.770Z,30
2023-03-21T15:53:17.300Z,30
2023-03-21T15:53:58.137Z,30
2023-03-21T15:54:39.014Z,30
2023-03-21T15:55:19.580Z,30
2023-03-21T15:56:00.304Z,30
2023-03-21T15:56:40.905Z,30
2023-03-21T16:04:06.663Z,25
2023-03-21T16:04:47.191Z,25
2023-03-21T16:05:27.755Z,20
2023-03-21T16:06:10.693Z,20
2023-03-21T16:06:48.745Z,20
2023-03-21T16:07:29.268Z,20
2023-03-21T16:08:09.841Z,20
2023-03-21T16:08:50.410Z,20
2023-03-21T16:09:31.023Z,20
2023-03-21T16:17:04.853Z,20
2023-03-21T16:20:39.442Z,15
2023-03-21T16:21:26.649Z,15
2023-03-21T16:22:07.095Z,15
2023-03-21T16:22:47.671Z,15
2023-03-21T16:23:28.178Z,15
2023-03-21T16:24:10.402Z,15
2023-03-21T16:32:07.124Z,15
2023-03-21T16:32:47.546Z,10
2023-03-21T16:33:28.062Z,10
2023-03-21T16:37:31.214Z,10
2023-03-21T16:38:11.795Z,10
2023-03-21T16:38:52.396Z,10
2023-03-21T16:39:33.000Z,10
2023-03-21T16:40:13.589Z,10
2023-03-21T16:40:54.066Z,10
2023-03-21T16:41:34.645Z,10
2023-03-21T16:42:15.157Z,10
2023-03-21T16:42:55.652Z,10
2023-03-21T16:48:21.792Z,5
2023-03-21T16:49:02.187Z,5
2023-03-21T16:49:42.728Z,5
2023-03-21T16:50:23.917Z,5
2023-03-21T16:51:04.455Z,5
2023-03-21T16:51:45.092Z,5
2023-03-21T16:52:26.420Z,5
2023-03-21T16:53:06.213Z,5
2023-03-21T16:53:46.676Z,5
2023-03-21T16:54:27.288Z,5
2023-03-21T16:55:07.776Z,5
2023-03-21T16:55:48.389Z,5
2023-03-21T16:56:28.810Z,5
2023-03-21T16:57:09.306Z,5
2023-03-21T16:57:49.862Z,5
2023-03-21T16:58:30.427Z,5
2023-03-21T17:04:37.039Z,5
2023-03-21T17:05:17.503Z,5
2023-03-21T17:05:58.003Z,5
2023-03-21T17:06:38.598Z,5
2023-03-21T17:07:19.134Z,5
2023-03-21T17:07:59.596Z,0
2023-03-21T17:08:40.118Z,0
2023-03-21T17:16:05.911Z,0
2023-03-21T17:16:46.467Z,0
2023-03-21T17:17:26.993Z,0
2023-03-21T17:18:07.509Z,0
2023-03-21T17:18:48.067Z,0
2023-03-21T17:19:28.627Z,0
2023-03-21T17:20:09.201Z,0
2023-03-21T17:20:49.737Z,0
2023-03-21T17:21:30.246Z,0
2023-03-21T17:28:55.915Z,0
2023-03-21T17:29:36.456Z,0
2023-03-21T17:30:17.030Z,0
2023-03-21T17:30:57.431Z,0
2023-03-21T17:31:37.942Z,0
2023-03-21T17:32:18.499Z,0
2023-03-21T17:32:59.004Z,0
2023-03-21T17:33:39.496Z,0
2023-03-21T17:34:19.998Z,0
2023-03-21T17:35:01.148Z,0
2023-03-21T17:41:05.651Z,0
2023-03-21T17:41:46.168Z,0
2023-03-21T17:42:26.712Z,0
2023-03-21T17:43:07.228Z,0
2023-03-21T17:43:47.757Z,0
2023-03-21T17:44:28.268Z,0
2023-03-21T17:45:08.815Z,0
2023-03-21T17:45:49.418Z,0
2023-03-21T17:46:29.820Z,0
2023-03-21T17:47:10.327Z,0
2023-03-21T17:52:10.455Z,0
2023-03-21T17:52:51.106Z,0
2023-03-21T17:53:31.466Z,0
2023-03-21T18:34:16.987Z,0
2023-03-21T18:34:57.423Z,0
2023-03-21T18:35:38.569Z,0
2023-03-21T18:39:41.421Z,0
2023-03-21T18:41:03.434Z,0
2023-03-21T18:41:43.937Z,0
2023-03-21T18:42:24.613Z,0
2023-03-21T18:44:01.028Z,0
2023-03-21T18:44:26.100Z,0
2023-03-21T18:49:57.247Z,0
2023-03-21T18:50:33.297Z,0
2023-03-21T18:51:13.833Z,0
2023-03-21T18:51:54.345Z,0
2023-03-21T18:52:34.883Z,0
2023-03-21T18:53:15.437Z,0
2023-03-21T18:53:55.979Z,0
2023-03-21T19:01:21.781Z,0
2023-03-21T19:02:02.241Z,0
2023-03-21T19:02:46.192Z,0
2023-03-21T19:03:35.048Z,0
2023-03-21T19:04:20.630Z,0
2023-03-21T19:04:44.443Z,0
2023-03-21T19:05:24.940Z,0
2023-03-21T19:06:05.489Z,0
2023-03-21T19:06:46.183Z,0
2023-03-21T19:09:52.240Z,0
2023-03-21T19:10:19.532Z,0
2023-03-21T19:11:35.565Z,0
2023-03-21T19:12:15.955Z,0
2023-03-21T19:19:02.054Z,0
2023-03-21T19:19:42.398Z,0
2023-03-21T19:20:22.860Z,0
2023-03-21T19:21:04.064Z,0
2023-03-21T19:21:44.576Z,0
2023-03-21T19:22:25.086Z,0
2023-03-21T19:23:05.659Z,0
2023-03-21T19:30:31.444Z,0
2023-03-21T19:34:13.067Z,0
2023-03-21T19:34:53.524Z,0
2023-03-21T19:35:35.213Z,0
2023-03-21T19:36:56.525Z,0
2023-03-21T19:37:37.078Z,0
2023-03-21T19:38:17.747Z,0
2023-03-21T19:38:58.519Z,0
2023-03-21T19:39:38.711Z,0
2023-03-21T19:40:19.384Z,0
2023-03-21T19:45:05.686Z,0
2023-03-21T19:45:46.533Z,0
2023-03-21T19:46:27.136Z,0
2023-03-21T19:47:07.620Z,0
2023-03-21T19:47:48.220Z,0
2023-03-21T19:48:28.780Z,0
2023-03-21T19:55:56.019Z,0
2023-03-21T19:57:16.648Z,0
2023-03-21T19:57:57.184Z,0
2023-03-21T19:58:37.667Z,0
2023-03-21T19:59:18.233Z,0
2023-03-21T19:59:58.714Z,0
2023-03-21T20:00:39.517Z,0
2023-03-21T20:01:19.736Z,0
2023-03-21T20:02:14.935Z,0
2023-03-21T20:10:06.408Z,0
2023-03-21T20:10:46.954Z,0
2023-03-21T20:11:27.405Z,0
2023-03-21T20:12:07.931Z,0
2023-03-21T20:12:48.410Z,0
2023-03-21T20:13:28.926Z,0
2023-03-21T20:14:09.389Z,0
2023-03-21T20:14:52.149Z,0
2023-03-21T20:15:30.777Z,0
2023-03-21T20:22:24.408Z,0
2023-03-21T20:23:06.618Z,0
2023-03-21T20:23:36.487Z,0
2023-03-21T20:24:17.039Z,0
2023-03-21T20:24:57.547Z,0
2023-03-21T20:25:38.043Z,0
2023-03-21T20:26:18.574Z,0
2023-03-21T20:27:40.885Z,0
2023-03-21T20:28:25.717Z,0
2023-03-21T20:36:29.331Z,0
2023-03-21T20:36:39.881Z,0
2023-03-21T20:37:06.747Z,0
2023-03-21T20:37:47.113Z,0
2023-03-21T20:38:27.648Z,0
2023-03-21T20:39:08.097Z,0
2023-03-21T20:40:29.159Z,0
2023-03-21T20:41:09.641Z,0
2023-03-21T20:41:50.203Z,0
2023-03-21T20:47:55.452Z,0
2023-03-21T20:48:35.892Z,0
2023-03-21T20:49:16.411Z,0
2023-03-21T20:49:56.919Z,0
2023-03-21T20:50:39.220Z,0
2023-03-21T20:52:29.392Z,0
2023-03-21T20:53:19.403Z,0
2023-03-21T20:53:59.910Z,0
2023-03-21T21:01:25.391Z,0
2023-03-21T21:02:05.854Z,0
2023-03-21T21:02:46.362Z,0
2023-03-21T21:03:26.820Z,0
2023-03-21T21:04:07.334Z,0
2023-03-21T21:05:12.050Z,0
2023-03-21T21:05:32.111Z,0
2023-03-21T21:06:08.915Z,0
2023-03-21T21:06:49.454Z,0
2023-03-21T21:07:29.889Z,0
2023-03-21T21:14:55.386Z,0
2023-03-21T21:15:35.931Z,0
2023-03-21T21:16:16.388Z,0
2023-03-21T21:16:56.915Z,0
2023-03-21T21:18:03.832Z,0
2023-03-21T21:18:17.948Z,0
2023-03-21T21:18:58.450Z,0
2023-03-21T21:19:38.929Z,0
2023-03-21T21:20:19.430Z,0
2023-03-21T21:20:59.951Z,0
2023-03-21T21:28:25.395Z,0
2023-03-21T21:29:05.932Z,0
2023-03-21T21:29:46.400Z,0
2023-03-21T21:30:26.877Z,0
2023-03-21T21:31:07.419Z,0
2023-03-21T21:31:47.869Z,0
2023-03-21T21:32:28.361Z,0
2023-03-21T21:33:08.841Z,0
2023-03-21T21:33:49.394Z,0
2023-03-21T21:34:29.882Z,0
2023-03-21T21:41:55.389Z,0
2023-03-21T21:42:35.906Z,0
2023-03-21T21:43:16.383Z,0
2023-03-21T21:43:56.878Z,0
2023-03-21T21:44:37.377Z,0
2023-03-21T21:45:17.884Z,0
2023-03-21T21:45:58.367Z,0
2023-03-21T21:46:38.976Z,0
2023-03-21T21:47:19.430Z,0
2023-03-21T21:47:59.968Z,0
2023-03-21T21:55:25.469Z,0
2023-03-21T21:56:06.017Z,0
2023-03-21T21:56:46.407Z,0
2023-03-21T21:57:26.911Z,0
2023-03-21T21:58:07.432Z,0
2023-03-21T21:58:47.930Z,0
2023-03-21T21:59:28.450Z,0
2023-03-21T22:00:08.986Z,0
2023-03-21T22:00:49.470Z,0
2023-03-21T22:01:29.944Z,0
2023-03-21T22:08:55.517Z,0
2023-03-21T22:09:35.970Z,0
2023-03-21T22:10:16.513Z,0
2023-03-21T22:10:56.984Z,0
2023-03-21T22:11:37.515Z,0
2023-03-21T22:12:18.076Z,0
2023-03-21T22:12:58.542Z,0
2023-03-21T22:13:39.040Z,0
2023-03-21T22:14:19.739Z,0
2023-03-21T22:15:00.020Z,0
2023-03-21T22:22:25.532Z,0
2023-03-21T22:23:06.035Z,0
2023-03-21T22:23:46.506Z,0
2023-03-21T22:24:26.989Z,0
2023-03-21T22:25:07.509Z,0
2023-03-21T22:25:48.104Z,0
2023-03-21T22:26:28.602Z,0
2023-03-21T22:27:09.087Z,0
2023-03-21T22:27:49.567Z,0
2023-03-21T22:28:30.111Z,0
2023-03-21T22:35:55.588Z,0
2023-03-21T22:36:36.029Z,0
2023-03-21T22:37:16.526Z,0
2023-03-21T22:37:56.986Z,0